createdAt,value
2018-05-15T00:02:14.577Z,13.83
2018-05-15T00:04:43.647Z,13.60
2018-05-15T00:07:11.718Z,15.93
2018-05-15T00:09:39.777Z,14.17
2018-05-15T00:12:07.892Z,11.90
2018-05-15T00:14:36.737Z,13.57
2018-05-15T00:17:04.823Z,14.40
2018-05-15T00:19:33.192Z,13.67
2018-05-15T00:22:01.313Z,11.80
2018-05-15T00:24:30.169Z,12.07
2018-05-15T00:26:58.265Z,12.10
2018-05-15T00:29:26.340Z,15.37
2018-05-15T00:31:55.306Z,15.93
2018-05-15T00:34:23.389Z,11.50
2018-05-15T00:36:52.081Z,13.83
2018-05-15T00:39:20.165Z,11.20
2018-05-15T00:41:49.308Z,11.80
2018-05-15T00:44:17.411Z,12.70
2018-05-15T00:46:45.476Z,12.00
2018-05-15T00:49:13.859Z,10.53
2018-05-15T00:51:41.917Z,12.90
2018-05-15T00:54:10.003Z,10.90
2018-05-15T00:56:38.081Z,12.67
2018-05-15T00:59:06.959Z,14.93
2018-05-15T01:01:35.052Z,12.80
2018-05-15T01:04:04.148Z,12.17
2018-05-15T01:06:33.417Z,14.80
2018-05-15T01:09:01.492Z,13.33
2018-05-15T01:11:29.597Z,15.77
2018-05-15T01:13:58.424Z,11.83
2018-05-15T01:16:26.499Z,11.63
2018-05-15T01:18:55.033Z,9.80
2018-05-15T01:21:23.127Z,13.40
2018-05-15T01:23:51.987Z,14.57
2018-05-15T01:26:20.093Z,9.20
2018-05-15T01:28:48.923Z,14.10
2018-05-15T01:31:17.025Z,10.73
2018-05-15T01:33:45.117Z,10.07
2018-05-15T01:36:13.944Z,13.43
2018-05-15T01:38:42.047Z,8.57
2018-05-15T01:41:10.128Z,8.93
2018-05-15T01:43:38.409Z,10.50
2018-05-15T01:46:07.276Z,10.57
2018-05-15T01:48:35.533Z,10.83
2018-05-15T01:51:03.625Z,11.27
2018-05-15T01:53:31.705Z,9.97
2018-05-15T01:56:00.100Z,11.57
2018-05-15T01:58:28.193Z,10.43
2018-05-15T02:00:57.046Z,13.67
2018-05-15T02:03:25.355Z,10.27
2018-05-15T02:05:54.230Z,12.50
2018-05-15T02:08:24.148Z,13.23
2018-05-15T02:10:53.243Z,13.50
2018-05-15T02:13:22.073Z,9.87
2018-05-15T02:15:50.144Z,15.30
2018-05-15T02:18:18.224Z,15.43
2018-05-15T02:20:46.284Z,12.27
2018-05-15T02:23:14.377Z,11.13
2018-05-15T02:25:42.737Z,10.67
2018-05-15T02:28:10.804Z,13.00
2018-05-15T02:30:38.906Z,10.23
2018-05-15T02:33:07.216Z,10.40
2018-05-15T02:35:36.050Z,13.00
2018-05-15T02:38:04.112Z,14.13
2018-05-15T02:40:32.188Z,8.40
2018-05-15T02:43:00.254Z,11.90
2018-05-15T02:45:28.513Z,8.67
2018-05-15T02:47:56.940Z,10.10
2018-05-15T02:50:25.000Z,11.33
2018-05-15T02:52:53.056Z,8.63
2018-05-15T02:55:21.173Z,11.27
2018-05-15T02:57:49.220Z,11.40
2018-05-15T03:00:17.284Z,8.83
2018-05-15T03:02:45.380Z,9.63
2018-05-15T03:05:13.461Z,13.87
2018-05-15T03:07:41.542Z,14.33
2018-05-15T03:10:10.829Z,14.07
2018-05-15T03:12:38.904Z,13.33
2018-05-15T03:15:06.955Z,11.73
2018-05-15T03:17:35.345Z,14.10
2018-05-15T03:20:03.400Z,11.87
2018-05-15T03:22:31.465Z,13.97
2018-05-15T03:24:59.557Z,11.20
2018-05-15T03:27:27.635Z,11.97
2018-05-15T03:29:55.674Z,13.67
2018-05-15T03:32:23.789Z,10.33
2018-05-15T03:34:52.149Z,10.63
2018-05-15T03:37:20.229Z,11.20
2018-05-15T03:39:48.357Z,15.20
2018-05-15T03:42:16.975Z,10.37
2018-05-15T03:44:45.057Z,11.20
2018-05-15T03:47:14.373Z,8.93
2018-05-15T03:49:43.225Z,9.87
2018-05-15T03:52:11.341Z,9.27
2018-05-15T03:54:40.204Z,9.50
2018-05-15T03:57:08.289Z,10.47
2018-05-15T03:59:37.140Z,9.53
2018-05-15T04:02:05.220Z,10.77
2018-05-15T04:04:33.305Z,10.13
2018-05-15T04:07:01.387Z,8.37
2018-05-15T04:09:31.173Z,9.07
2018-05-15T04:11:59.277Z,9.10
2018-05-15T04:14:28.137Z,10.50
2018-05-15T04:16:56.225Z,9.53
2018-05-15T04:19:24.305Z,9.10
2018-05-15T04:21:53.200Z,12.43
2018-05-15T04:24:21.269Z,11.10
2018-05-15T04:26:50.165Z,12.37
2018-05-15T04:29:19.776Z,12.83
2018-05-15T04:31:48.620Z,9.70
2018-05-15T04:34:16.688Z,11.17
2018-05-15T04:36:44.773Z,9.87
2018-05-15T04:39:12.829Z,9.97
2018-05-15T04:41:40.949Z,11.30
2018-05-15T04:44:09.940Z,9.97
2018-05-15T04:46:38.778Z,13.60
2018-05-15T04:49:06.913Z,13.30
2018-05-15T04:51:36.056Z,11.50
2018-05-15T04:54:04.164Z,11.40
2018-05-15T04:56:32.241Z,15.03
2018-05-15T04:59:00.296Z,12.43
2018-05-15T05:01:28.549Z,9.90
2018-05-15T05:03:57.592Z,9.93
2018-05-15T05:06:26.449Z,9.33
2018-05-15T05:08:54.504Z,11.57
2018-05-15T05:11:23.192Z,10.23
2018-05-15T05:13:51.885Z,8.43
2018-05-15T05:16:19.988Z,8.23
2018-05-15T05:18:48.529Z,9.03
2018-05-15T05:21:16.603Z,9.17
2018-05-15T05:23:45.112Z,10.43
2018-05-15T05:26:13.181Z,9.93
2018-05-15T05:28:42.074Z,8.60
2018-05-15T05:31:11.125Z,9.43
2018-05-15T05:33:39.788Z,8.93
2018-05-15T05:36:09.217Z,11.80
2018-05-15T05:38:38.263Z,9.13
2018-05-15T05:41:06.769Z,9.20
2018-05-15T05:43:36.249Z,9.33
2018-05-15T05:46:05.657Z,9.07
2018-05-15T05:48:35.054Z,10.43
2018-05-15T05:51:04.220Z,9.13
2018-05-15T05:53:33.303Z,11.20
2018-05-15T05:56:02.390Z,8.80
2018-05-15T05:58:30.934Z,10.10
2018-05-15T06:01:00.426Z,9.43
2018-05-15T06:03:28.601Z,9.33
2018-05-15T06:05:59.593Z,7.63
2018-05-15T06:08:28.024Z,7.93
2018-05-15T06:10:56.505Z,13.00
2018-05-15T06:13:24.587Z,8.77
2018-05-15T06:15:53.985Z,9.10
2018-05-15T06:18:23.603Z,12.50
2018-05-15T06:20:52.468Z,12.60
2018-05-15T06:23:20.538Z,10.90
2018-05-15T06:25:48.642Z,9.23
2018-05-15T06:28:17.536Z,8.87
2018-05-15T06:30:45.871Z,8.80
2018-05-15T06:33:14.485Z,8.33
2018-05-15T06:35:43.310Z,7.83
2018-05-15T06:38:11.406Z,12.40
2018-05-15T06:40:39.872Z,8.90
2018-05-15T06:43:09.065Z,10.70
2018-05-15T06:45:37.536Z,10.10
2018-05-15T06:48:06.181Z,12.40
2018-05-15T06:50:34.251Z,8.07
2018-05-15T06:53:03.095Z,10.03
2018-05-15T06:55:31.902Z,7.87
2018-05-15T06:58:00.350Z,8.53
2018-05-15T07:00:28.892Z,11.50
2018-05-15T07:02:58.603Z,10.17
2018-05-15T07:05:29.424Z,7.33
2018-05-15T07:07:57.896Z,8.93
2018-05-15T07:10:25.988Z,8.37
2018-05-15T07:12:54.074Z,6.00
2018-05-15T07:15:23.818Z,6.37
2018-05-15T07:17:51.904Z,5.53
2018-05-15T07:20:19.973Z,7.43
2018-05-15T07:22:48.304Z,10.23
2018-05-15T07:25:17.145Z,8.07
2018-05-15T07:27:45.237Z,5.85
2018-05-15T07:30:13.721Z,9.20
2018-05-15T07:32:44.137Z,10.40
2018-05-15T07:35:13.132Z,6.32
2018-05-15T07:37:41.596Z,9.13
2018-05-15T07:40:10.317Z,8.05
2018-05-15T07:42:39.097Z,9.75
2018-05-15T07:45:07.906Z,8.02
2018-05-15T07:47:37.009Z,8.25
2018-05-15T07:50:07.256Z,9.40
2018-05-15T07:52:35.617Z,10.77
2018-05-15T07:55:04.547Z,5.00
2018-05-15T07:57:33.395Z,7.57
2018-05-15T08:00:02.309Z,9.70
2018-05-15T08:02:31.041Z,7.07
2018-05-15T08:04:59.322Z,9.70
2018-05-15T08:07:27.511Z,6.97
2018-05-15T08:09:56.710Z,8.70
2018-05-15T08:12:25.581Z,5.80
2018-05-15T08:14:54.182Z,7.80
2018-05-15T08:17:23.115Z,8.07
2018-05-15T08:19:51.589Z,7.85
2018-05-15T08:22:20.108Z,10.68
2018-05-15T08:24:49.984Z,4.72
2018-05-15T08:27:18.395Z,8.23
2018-05-15T08:29:47.020Z,7.25
2018-05-15T08:32:15.561Z,4.47
2018-05-15T08:34:44.949Z,7.78
2018-05-15T08:37:13.655Z,6.90
2018-05-15T08:39:42.594Z,6.60
2018-05-15T08:42:11.913Z,8.35
2018-05-15T08:44:40.478Z,7.78
2018-05-15T08:47:09.605Z,6.30
2018-05-15T08:49:38.117Z,5.90
2018-05-15T08:52:06.249Z,11.63
2018-05-15T08:54:34.688Z,10.82
2018-05-15T08:57:04.077Z,6.78
2018-05-15T08:59:33.372Z,7.57
2018-05-15T09:02:01.445Z,6.12
2018-05-15T09:04:29.576Z,5.53
2018-05-15T09:06:57.918Z,5.15
2018-05-15T09:09:27.281Z,6.70
2018-05-15T09:11:55.833Z,7.57
2018-05-15T09:14:23.947Z,5.72
2018-05-15T09:16:52.471Z,6.50
2018-05-15T09:19:20.864Z,9.18
2018-05-15T09:21:50.069Z,8.98
2018-05-15T09:24:18.604Z,10.77
2018-05-15T09:26:47.278Z,8.55
2018-05-15T09:29:15.845Z,10.85
2018-05-15T09:31:44.517Z,6.75
2018-05-15T09:34:12.951Z,9.95
2018-05-15T09:36:42.289Z,7.60
2018-05-15T09:39:10.921Z,7.15
2018-05-15T09:41:40.429Z,8.23
2018-05-15T09:44:09.777Z,7.03
2018-05-15T09:46:38.267Z,7.40
2018-05-15T09:49:07.630Z,7.22
2018-05-15T09:51:37.131Z,7.78
2018-05-15T09:54:06.085Z,4.75
2018-05-15T09:56:34.892Z,10.57
2018-05-15T09:59:04.363Z,4.70
2018-05-15T10:01:36.695Z,7.20
2018-05-15T10:04:05.533Z,7.57
2018-05-15T10:06:34.359Z,8.48
2018-05-15T10:09:03.627Z,5.18
2018-05-15T10:11:32.189Z,6.93
2018-05-15T10:14:00.925Z,9.65
2018-05-15T10:16:29.469Z,9.82
2018-05-15T10:18:57.941Z,6.82
2018-05-15T10:21:26.573Z,9.38
2018-05-15T10:23:55.126Z,7.82
2018-05-15T10:26:24.472Z,7.93
2018-05-15T10:28:53.038Z,7.43
2018-05-15T10:31:22.445Z,7.62
2018-05-15T10:33:51.784Z,8.38
2018-05-15T10:36:20.593Z,6.57
2018-05-15T10:38:49.177Z,6.78
2018-05-15T10:41:18.061Z,7.43
2018-05-15T10:43:46.765Z,6.60
2018-05-15T10:46:15.589Z,7.47
2018-05-15T10:48:44.987Z,11.05
2018-05-15T10:51:14.390Z,10.68
2018-05-15T10:53:43.241Z,10.05
2018-05-15T10:56:11.761Z,5.78
2018-05-15T10:58:41.349Z,10.38
2018-05-15T11:01:10.564Z,6.80
2018-05-15T11:03:40.175Z,7.50
2018-05-15T11:06:10.308Z,7.78
2018-05-15T11:08:38.984Z,7.68
2018-05-15T11:11:08.656Z,8.27
2018-05-15T11:13:37.785Z,6.93
2018-05-15T11:16:07.037Z,6.93
2018-05-15T11:18:36.344Z,5.07
2018-05-15T11:21:04.984Z,4.80
2018-05-15T11:23:35.373Z,4.75
2018-05-15T11:26:03.747Z,6.82
2018-05-15T11:28:32.452Z,6.37
2018-05-15T11:31:00.833Z,10.23
2018-05-15T11:33:29.265Z,5.03
2018-05-15T11:35:57.370Z,7.00
2018-05-15T11:38:25.651Z,6.45
2018-05-15T11:40:54.258Z,7.07
2018-05-15T11:43:22.879Z,5.60
2018-05-15T11:45:52.347Z,6.85
2018-05-15T11:48:20.846Z,6.18
2018-05-15T11:50:50.178Z,7.95
2018-05-15T11:53:18.938Z,7.03
2018-05-15T11:55:47.331Z,9.07
2018-05-15T11:58:16.556Z,7.00
2018-05-15T12:00:45.216Z,10.95
2018-05-15T12:03:13.670Z,7.55
2018-05-15T12:05:42.108Z,7.57
2018-05-15T12:08:11.588Z,10.98
2018-05-15T12:10:39.715Z,6.40
2018-05-15T12:13:08.867Z,5.95
2018-05-15T12:15:36.953Z,8.20
2018-05-15T12:18:05.049Z,5.18
2018-05-15T12:20:34.286Z,7.22
2018-05-15T12:23:02.368Z,5.60
2018-05-15T12:25:31.044Z,6.72
2018-05-15T12:27:59.307Z,4.65
2018-05-15T12:30:27.747Z,6.85
2018-05-15T12:32:56.026Z,4.97
2018-05-15T12:35:24.776Z,7.20
2018-05-15T12:37:52.861Z,6.50
2018-05-15T12:40:22.077Z,9.35
2018-05-15T12:42:50.153Z,6.93
2018-05-15T12:45:18.739Z,5.05
2018-05-15T12:47:46.810Z,6.97
2018-05-15T12:50:16.101Z,5.37
2018-05-15T12:52:44.185Z,5.82
2018-05-15T12:55:13.269Z,6.82
2018-05-15T12:57:41.517Z,5.97
2018-05-15T13:00:10.144Z,6.45
2018-05-15T13:02:38.243Z,7.50
2018-05-15T13:05:06.773Z,6.57
2018-05-15T13:07:34.915Z,5.20
2018-05-15T13:10:03.153Z,5.97
2018-05-15T13:12:32.727Z,7.10
2018-05-15T13:15:02.043Z,3.70
2018-05-15T13:17:30.813Z,4.50
2018-05-15T13:19:59.642Z,5.53
2018-05-15T13:22:28.815Z,4.75
2018-05-15T13:24:56.885Z,4.18
2018-05-15T13:27:25.385Z,3.80
2018-05-15T13:29:55.437Z,4.62
2018-05-15T13:32:24.694Z,8.93
2018-05-15T13:34:53.893Z,3.70
2018-05-15T13:37:23.182Z,7.78
2018-05-15T13:39:51.238Z,4.62
2018-05-15T13:42:19.340Z,4.68
2018-05-15T13:44:48.210Z,5.57
2018-05-15T13:47:16.924Z,4.57
2018-05-15T13:49:47.101Z,4.97
2018-05-15T13:52:15.910Z,5.20
2018-05-15T13:54:43.998Z,6.32
2018-05-15T13:57:13.232Z,4.07
2018-05-15T13:59:41.316Z,8.15
2018-05-15T14:02:09.950Z,11.30
2018-05-15T14:04:39.441Z,4.68
2018-05-15T14:07:07.729Z,6.45
2018-05-15T14:09:35.805Z,4.32
2018-05-15T14:12:04.457Z,7.60
2018-05-15T14:14:32.969Z,5.22
2018-05-15T14:17:02.465Z,5.32
2018-05-15T14:19:30.512Z,5.40
2018-05-15T14:21:58.589Z,7.07
2018-05-15T14:24:26.690Z,4.65
2018-05-15T14:26:54.733Z,5.87
2018-05-15T14:29:23.496Z,3.40
2018-05-15T14:31:52.225Z,6.55
2018-05-15T14:34:20.717Z,8.02
2018-05-15T14:36:50.316Z,5.10
2018-05-15T14:39:19.235Z,6.22
2018-05-15T14:41:48.089Z,4.32
2018-05-15T14:44:16.165Z,7.12
2018-05-15T14:46:44.505Z,4.62
2018-05-15T14:49:12.575Z,8.10
2018-05-15T14:51:41.310Z,5.65
2018-05-15T14:54:10.201Z,8.68
2018-05-15T14:56:38.265Z,5.30
2018-05-15T14:59:06.321Z,4.37
2018-05-15T15:01:34.391Z,7.95
2018-05-15T15:04:02.452Z,7.37
2018-05-15T15:06:31.426Z,5.20
2018-05-15T15:08:59.498Z,9.15
2018-05-15T15:11:27.605Z,8.30
2018-05-15T15:13:55.686Z,7.45
2018-05-15T15:16:23.737Z,6.07
2018-05-15T15:18:51.837Z,10.35
2018-05-15T15:21:21.010Z,4.53
2018-05-15T15:23:49.157Z,6.72
2018-05-15T15:26:17.969Z,7.05
2018-05-15T15:28:46.520Z,8.35
2018-05-15T15:31:15.022Z,5.20
2018-05-15T15:33:43.527Z,4.50
2018-05-15T15:36:11.580Z,5.37
2018-05-15T15:38:39.684Z,6.35
2018-05-15T15:41:08.189Z,5.50
2018-05-15T15:43:37.055Z,6.22
2018-05-15T15:46:05.129Z,4.82
2018-05-15T15:48:33.209Z,5.30
2018-05-15T15:51:02.445Z,8.30
2018-05-15T15:53:30.980Z,6.57
2018-05-15T15:55:59.721Z,5.68
2018-05-15T15:58:28.590Z,7.82
2018-05-15T16:00:57.200Z,6.82
2018-05-15T16:03:25.272Z,6.68
2018-05-15T16:05:53.358Z,4.82
2018-05-15T16:08:21.853Z,6.45
2018-05-15T16:10:50.417Z,6.90
2018-05-15T16:13:18.506Z,8.15
2018-05-15T16:15:46.597Z,6.45
2018-05-15T16:18:15.456Z,6.50
2018-05-15T16:20:43.869Z,7.30
2018-05-15T16:23:12.722Z,4.53
2018-05-15T16:25:40.809Z,8.60
2018-05-15T16:28:08.884Z,5.65
2018-05-15T16:30:36.937Z,4.80
2018-05-15T16:33:05.052Z,5.68
2018-05-15T16:35:34.585Z,6.12
2018-05-15T16:38:02.632Z,7.68
2018-05-15T16:40:31.477Z,7.28
2018-05-15T16:43:00.886Z,5.95
2018-05-15T16:45:28.947Z,7.45
2018-05-15T16:47:57.049Z,6.37
2018-05-15T16:50:25.114Z,6.97
2018-05-15T16:52:53.953Z,4.53
2018-05-15T16:55:22.023Z,7.65
2018-05-15T16:57:50.128Z,5.93
2018-05-15T17:00:18.200Z,6.07
2018-05-15T17:02:46.297Z,5.62
2018-05-15T17:05:14.661Z,5.90
2018-05-15T17:07:42.718Z,4.95
2018-05-15T17:10:10.821Z,5.07
2018-05-15T17:12:39.793Z,7.95
2018-05-15T17:15:07.855Z,4.97
2018-05-15T17:17:35.957Z,7.07
2018-05-15T17:20:05.023Z,7.18
2018-05-15T17:22:33.105Z,5.32
2018-05-15T17:25:01.167Z,6.28
2018-05-15T17:27:29.570Z,6.05
2018-05-15T17:29:57.625Z,7.75
2018-05-15T17:32:26.296Z,6.87
2018-05-15T17:34:54.788Z,5.97
2018-05-15T17:37:22.862Z,9.18
2018-05-15T17:39:50.953Z,5.10
2018-05-15T17:42:19.513Z,6.40
2018-05-15T17:44:47.585Z,6.00
2018-05-15T17:47:15.666Z,4.70
2018-05-15T17:49:44.176Z,8.77
2018-05-15T17:52:12.279Z,5.12
2018-05-15T17:54:40.352Z,8.95
2018-05-15T17:57:08.425Z,7.65
2018-05-15T17:59:36.498Z,5.60
2018-05-15T18:02:04.585Z,6.07
2018-05-15T18:04:32.693Z,8.32
2018-05-15T18:07:01.545Z,9.10
2018-05-15T18:09:29.648Z,7.12
2018-05-15T18:11:58.354Z,6.03
2018-05-15T18:14:27.197Z,10.35
2018-05-15T18:16:55.304Z,6.43
2018-05-15T18:19:24.167Z,7.00
2018-05-15T18:21:52.235Z,6.30
2018-05-15T18:24:20.305Z,5.00
2018-05-15T18:26:48.741Z,6.47
2018-05-15T18:29:16.737Z,5.05
2018-05-15T18:31:44.825Z,5.80
2018-05-15T18:34:13.085Z,7.05
2018-05-15T18:36:41.714Z,5.87
2018-05-15T18:39:09.824Z,6.03
2018-05-15T18:41:37.833Z,5.43
2018-05-15T18:44:05.942Z,8.15
2018-05-15T18:46:34.793Z,5.53
2018-05-15T18:49:02.861Z,5.32
2018-05-15T18:51:30.974Z,5.78
2018-05-15T18:53:59.809Z,6.07
2018-05-15T18:56:27.876Z,5.07
2018-05-15T18:58:56.260Z,7.30
2018-05-15T19:01:24.883Z,4.55
2018-05-15T19:03:53.033Z,4.25
2018-05-15T19:06:21.137Z,5.60
2018-05-15T19:08:49.969Z,5.20
2018-05-15T19:11:18.079Z,6.32
2018-05-15T19:13:46.140Z,7.35
2018-05-15T19:16:14.241Z,6.53
2018-05-15T19:18:44.030Z,5.95
2018-05-15T19:21:12.129Z,5.37
2018-05-15T19:23:41.385Z,5.18
2018-05-15T19:26:09.474Z,4.45
2018-05-15T19:28:37.528Z,8.20
2018-05-15T19:31:05.602Z,4.57
2018-05-15T19:33:33.710Z,8.32
2018-05-15T19:36:02.565Z,6.07
2018-05-15T19:38:30.961Z,4.93
2018-05-15T19:40:59.012Z,7.12
2018-05-15T19:43:27.713Z,8.32
2018-05-15T19:45:55.769Z,5.05
2018-05-15T19:48:23.862Z,7.15
2018-05-15T19:50:51.941Z,4.53
2018-05-15T19:53:20.030Z,6.60
2018-05-15T19:55:48.859Z,6.75
2018-05-15T19:58:16.957Z,6.80
2018-05-15T20:00:45.005Z,7.53
2018-05-15T20:03:13.093Z,6.95
2018-05-15T20:05:41.160Z,5.68
2018-05-15T20:08:09.364Z,7.07
2018-05-15T20:10:37.436Z,5.87
2018-05-15T20:13:07.014Z,3.92
2018-05-15T20:15:35.100Z,7.67
2018-05-15T20:18:03.153Z,5.57
2018-05-15T20:20:31.837Z,6.73
2018-05-15T20:22:59.929Z,4.03
2018-05-15T20:25:27.980Z,5.20
2018-05-15T20:27:56.257Z,3.57
2018-05-15T20:30:24.636Z,5.05
2018-05-15T20:32:53.120Z,6.32
2018-05-15T20:35:21.207Z,4.30
2018-05-15T20:37:49.277Z,5.50
2018-05-15T20:40:17.371Z,5.05
2018-05-15T20:42:46.237Z,7.70
2018-05-15T20:45:14.293Z,8.88
2018-05-15T20:47:42.648Z,6.10
2018-05-15T20:50:10.777Z,6.23
2018-05-15T20:52:39.649Z,5.47
2018-05-15T20:55:07.709Z,5.57
2018-05-15T20:57:35.798Z,7.57
2018-05-15T21:00:03.884Z,6.25
2018-05-15T21:02:32.740Z,8.07
2018-05-15T21:05:00.829Z,5.32
2018-05-15T21:07:28.903Z,4.60
2018-05-15T21:09:56.993Z,7.65
2018-05-15T21:12:25.824Z,6.60
2018-05-15T21:14:53.917Z,4.37
2018-05-15T21:17:22.194Z,7.20
2018-05-15T21:19:50.280Z,8.03
2018-05-15T21:22:18.341Z,8.63
2018-05-15T21:24:46.733Z,6.20
2018-05-15T21:27:15.067Z,5.27
2018-05-15T21:29:43.164Z,9.57
2018-05-15T21:32:11.245Z,9.73
2018-05-15T21:34:39.317Z,5.83
2018-05-15T21:37:07.396Z,8.45
2018-05-15T21:39:35.489Z,5.33
2018-05-15T21:42:04.346Z,6.33
2018-05-15T21:44:32.415Z,9.87
2018-05-15T21:47:00.559Z,5.47
2018-05-15T21:49:28.655Z,7.20
2018-05-15T21:51:56.928Z,9.80
2018-05-15T21:54:25.045Z,5.17
2018-05-15T21:56:53.929Z,9.90
2018-05-15T21:59:22.782Z,8.03
2018-05-15T22:01:50.861Z,5.50
2018-05-15T22:04:19.321Z,5.47
2018-05-15T22:06:47.413Z,8.37
2018-05-15T22:09:15.547Z,5.97
2018-05-15T22:11:44.349Z,5.70
2018-05-15T22:14:12.445Z,7.73
2018-05-15T22:16:40.715Z,8.37
2018-05-15T22:19:08.792Z,6.43
2018-05-15T22:21:36.848Z,5.87
2018-05-15T22:24:05.349Z,6.90
2018-05-15T22:26:33.441Z,6.07
2018-05-15T22:29:01.517Z,7.50
2018-05-15T22:31:29.561Z,7.10
2018-05-15T22:33:57.649Z,6.37
2018-05-15T22:36:25.717Z,5.77
2018-05-15T22:38:53.777Z,7.23
2018-05-15T22:41:22.050Z,9.33
2018-05-15T22:43:50.106Z,5.80
2018-05-15T22:46:18.302Z,5.53
2018-05-15T22:48:47.113Z,7.37
2018-05-15T22:51:15.974Z,6.30
2018-05-15T22:53:50.067Z,7.83
2018-05-15T22:56:18.141Z,6.40
2018-05-15T22:58:46.233Z,6.30
2018-05-15T23:01:14.305Z,8.37
2018-05-15T23:03:42.370Z,7.30
2018-05-15T23:06:10.830Z,6.83
2018-05-15T23:08:38.953Z,6.93
2018-05-15T23:11:07.027Z,6.87
2018-05-15T23:13:35.072Z,8.30
2018-05-15T23:16:03.169Z,6.17
2018-05-15T23:18:31.216Z,6.63
2018-05-15T23:20:59.313Z,6.67
2018-05-15T23:23:27.698Z,8.50
2018-05-15T23:25:56.557Z,8.10
2018-05-15T23:28:24.652Z,7.87
2018-05-15T23:30:52.737Z,6.87
2018-05-15T23:33:21.587Z,6.07
2018-05-15T23:35:49.640Z,8.20
2018-05-15T23:38:17.757Z,6.47
2018-05-15T23:40:45.828Z,7.80
2018-05-15T23:43:13.870Z,7.10
2018-05-15T23:45:41.977Z,6.77
2018-05-15T23:48:10.041Z,8.63
2018-05-15T23:50:38.115Z,8.30
2018-05-15T23:53:07.121Z,8.07
2018-05-15T23:55:35.973Z,7.47
2018-05-15T23:58:04.033Z,9.73
